createdAt,value
2022-10-17T00:01:02.748Z,101176.09
2022-10-17T00:03:29.421Z,101179.22
2022-10-17T00:05:58.426Z,101173.38
2022-10-17T00:08:25.475Z,101169.22
2022-10-17T00:11:01.694Z,101168.50
2022-10-17T00:13:28.706Z,101171.72
2022-10-17T00:15:58.180Z,101172.00
2022-10-17T00:18:26.631Z,101169.13
2022-10-17T00:20:54.632Z,101167.19
2022-10-17T00:23:22.664Z,101170.97
2022-10-17T00:26:01.487Z,101168.69
2022-10-17T00:28:29.309Z,101173.09
2022-10-17T00:31:03.040Z,101174.34
2022-10-17T00:33:31.221Z,101166.06
2022-10-17T00:36:08.548Z,101169.97
2022-10-17T00:38:38.378Z,101169.78
2022-10-17T00:41:07.178Z,101167.34
2022-10-17T00:44:29.354Z,101166.88
2022-10-17T00:46:58.670Z,101170.09
2022-10-17T00:49:29.911Z,101170.09
2022-10-17T00:52:01.743Z,101177.19
2022-10-17T00:54:32.822Z,101171.78
2022-10-17T00:57:01.687Z,101177.44
2022-10-17T00:59:29.888Z,101168.63
2022-10-17T01:02:13.601Z,101170.34
2022-10-17T01:04:44.300Z,101160.69
2022-10-17T01:07:12.674Z,101162.28
2022-10-17T01:09:41.565Z,101165.69
2022-10-17T01:12:30.803Z,101164.72
2022-10-17T01:15:27.535Z,101161.25
2022-10-17T01:18:15.245Z,101165.22
2022-10-17T01:21:17.951Z,101157.84
2022-10-17T01:24:18.070Z,101158.09
2022-10-17T01:27:09.253Z,101161.78
2022-10-17T01:29:53.948Z,101162.03
2022-10-17T01:32:56.418Z,101162.03
2022-10-17T01:35:47.184Z,101177.94
2022-10-17T01:38:21.098Z,101175.13
2022-10-17T01:41:17.896Z,101171.84
2022-10-17T01:43:53.852Z,101166.44
2022-10-17T01:46:27.041Z,101175.25
2022-10-17T01:48:58.276Z,101166.44
2022-10-17T01:51:36.895Z,101174.53
2022-10-17T01:54:24.404Z,101170.63
2022-10-17T01:56:58.499Z,101167.16
2022-10-17T01:59:32.005Z,101172.56
2022-10-17T02:02:01.807Z,101169.16
2022-10-17T02:04:29.209Z,101171.13
2022-10-17T02:06:56.997Z,101175.63
2022-10-17T02:09:29.459Z,101171.13
2022-10-17T02:12:01.764Z,101173.06
2022-10-17T02:14:37.373Z,101178.47
2022-10-17T02:17:25.204Z,101182.41
2022-10-17T02:20:24.718Z,101189.75
2022-10-17T02:23:21.501Z,101197.13
2022-10-17T02:25:47.998Z,101195.41
2022-10-17T02:28:14.504Z,101203.34
2022-10-17T02:31:06.919Z,101188.78
2022-10-17T02:33:39.351Z,101195.75
2022-10-17T02:36:11.881Z,101200.28
2022-10-17T02:38:40.458Z,101203.97
2022-10-17T02:41:11.605Z,101204.22
2022-10-17T02:43:39.352Z,101203.84
2022-10-17T02:46:08.054Z,101198.59
2022-10-17T02:48:37.365Z,101205.25
2022-10-17T02:51:20.973Z,101205.50
2022-10-17T02:53:59.493Z,101203.75
2022-10-17T02:56:29.136Z,101208.44
2022-10-17T02:58:59.040Z,101204.00
2022-10-17T03:01:26.291Z,101215.03
2022-10-17T03:04:07.342Z,101214.31
2022-10-17T03:06:33.995Z,101217.00
2022-10-17T03:09:00.577Z,101220.06
2022-10-17T03:11:27.203Z,101219.47
2022-10-17T03:13:53.805Z,101215.06
2022-10-17T03:16:20.414Z,101218.00
2022-10-17T03:18:49.377Z,101227.31
2022-10-17T03:21:16.953Z,101223.16
2022-10-17T03:23:43.520Z,101219.00
2022-10-17T03:26:10.380Z,101217.50
2022-10-17T03:28:37.053Z,101226.59
2022-10-17T03:31:12.958Z,101230.25
2022-10-17T03:33:39.725Z,101231.97
2022-10-17T03:36:08.398Z,101231.97
2022-10-17T03:38:35.655Z,101232.69
2022-10-17T03:41:03.024Z,101233.19
2022-10-17T03:43:30.443Z,101231.47
2022-10-17T03:46:01.510Z,101230.59
2022-10-17T03:48:29.867Z,101228.03
2022-10-17T03:51:09.802Z,101235.16
2022-10-17T03:53:36.450Z,101241.38
2022-10-17T03:56:20.881Z,101246.16
2022-10-17T03:58:47.756Z,101244.44
2022-10-17T04:01:16.565Z,101241.25
2022-10-17T04:03:43.938Z,101250.31
2022-10-17T04:06:13.295Z,101246.66
2022-10-17T04:08:40.220Z,101252.88
2022-10-17T04:11:08.440Z,101255.44
2022-10-17T04:13:36.090Z,101257.19
2022-10-17T04:16:06.003Z,101264.53
2022-10-17T04:18:33.540Z,101259.16
2022-10-17T04:21:07.416Z,101261.06
2022-10-17T04:23:34.378Z,101255.69
2022-10-17T04:26:03.438Z,101261.06
2022-10-17T04:28:30.716Z,101266.22
2022-10-17T04:31:06.340Z,101266.22
2022-10-17T04:33:34.254Z,101271.38
2022-10-17T04:36:02.886Z,101264.28
2022-10-17T04:38:30.747Z,101269.91
2022-10-17T04:40:58.744Z,101270.16
2022-10-17T04:43:25.321Z,101280.16
2022-10-17T04:45:51.960Z,101281.41
2022-10-17T04:48:18.551Z,101274.28
2022-10-17T04:51:01.346Z,101276.25
2022-10-17T04:53:28.245Z,101286.06
2022-10-17T04:55:54.898Z,101281.41
2022-10-17T04:58:21.514Z,101284.22
2022-10-17T05:00:48.211Z,101285.91
2022-10-17T05:03:15.177Z,101283.22
2022-10-17T05:05:42.514Z,101283.38
2022-10-17T05:08:10.793Z,101286.78
2022-10-17T05:10:43.143Z,101288.47
2022-10-17T05:13:10.762Z,101281.16
2022-10-17T05:15:38.180Z,101291.69
2022-10-17T05:18:06.198Z,101293.38
2022-10-17T05:20:33.512Z,101295.97
2022-10-17T05:23:00.663Z,101300.88
2022-10-17T05:25:27.247Z,101301.50
2022-10-17T05:27:54.495Z,101300.25
2022-10-17T05:30:21.106Z,101302.72
2022-10-17T05:32:47.720Z,101300.78
2022-10-17T05:35:14.363Z,101307.38
2022-10-17T05:37:41.087Z,101317.91
2022-10-17T05:40:08.608Z,101316.56
2022-10-17T05:42:35.234Z,101311.78
2022-10-17T05:45:01.829Z,101323.03
2022-10-17T05:47:28.783Z,101323.31
2022-10-17T05:49:55.661Z,101321.09
2022-10-17T05:52:22.274Z,101326.22
2022-10-17T05:54:48.898Z,101327.22
2022-10-17T05:57:15.513Z,101330.38
2022-10-17T05:59:42.268Z,101335.28
2022-10-17T06:02:12.532Z,101333.56
2022-10-17T06:04:41.074Z,101337.44
2022-10-17T06:07:07.692Z,101338.41
2022-10-17T06:09:34.398Z,101335.69
2022-10-17T06:12:00.975Z,101349.41
2022-10-17T06:14:27.664Z,101344.72
2022-10-17T06:16:54.209Z,101352.50
2022-10-17T06:19:20.765Z,101351.19
2022-10-17T06:21:47.323Z,101357.53
2022-10-17T06:24:13.983Z,101352.19
2022-10-17T06:26:40.535Z,101350.00
2022-10-17T06:29:07.298Z,101355.81
2022-10-17T06:31:34.007Z,101360.13
2022-10-17T06:34:00.575Z,101360.78
2022-10-17T06:36:27.241Z,101362.50
2022-10-17T06:38:53.805Z,101360.00
2022-10-17T06:41:20.473Z,101370.34
2022-10-17T06:43:47.643Z,101376.53
2022-10-17T06:46:16.344Z,101371.81
2022-10-17T06:48:43.410Z,101369.59
2022-10-17T06:51:11.474Z,101379.84
2022-10-17T06:53:40.053Z,101386.72
2022-10-17T06:56:08.378Z,101383.28
2022-10-17T06:58:39.139Z,101385.84
2022-10-17T07:01:11.901Z,101388.72
2022-10-17T07:03:39.221Z,101396.13
2022-10-17T07:06:06.050Z,101392.22
2022-10-17T07:08:32.709Z,101395.06
2022-10-17T07:10:59.441Z,101402.59
2022-10-17T07:13:26.049Z,101399.75
2022-10-17T07:15:52.719Z,101405.38
2022-10-17T07:18:19.345Z,101399.28
2022-10-17T07:20:54.111Z,101405.78
2022-10-17T07:23:21.178Z,101407.72
2022-10-17T07:25:47.782Z,101415.06
2022-10-17T07:28:16.056Z,101417.25
2022-10-17T07:30:43.185Z,101407.69
2022-10-17T07:33:09.734Z,101409.78
2022-10-17T07:35:38.238Z,101406.22
2022-10-17T07:38:04.853Z,101409.03
2022-10-17T07:40:35.243Z,101409.47
2022-10-17T07:43:06.122Z,101409.78
2022-10-17T07:45:35.288Z,101400.91
2022-10-17T07:48:05.375Z,101411.63
2022-10-17T07:50:34.280Z,101407.91
2022-10-17T07:53:09.833Z,101403.34
2022-10-17T07:55:49.531Z,101405.38
2022-10-17T07:58:21.603Z,101407.75
2022-10-17T08:00:53.478Z,101409.34
2022-10-17T08:03:21.557Z,101408.81
2022-10-17T08:05:48.213Z,101405.63
2022-10-17T08:08:16.458Z,101404.63
2022-10-17T08:10:45.923Z,101414.81
2022-10-17T08:13:12.490Z,101409.72
2022-10-17T08:15:40.827Z,101404.63
2022-10-17T08:18:10.354Z,101400.50
2022-10-17T08:20:55.597Z,101411.06
2022-10-17T08:23:26.341Z,101412.97
2022-10-17T08:25:55.029Z,101412.78
2022-10-17T08:28:23.774Z,101423.31
2022-10-17T08:30:55.597Z,101425.56
2022-10-17T08:33:23.515Z,101419.16
2022-10-17T08:35:54.148Z,101418.66
2022-10-17T08:38:27.548Z,101417.22
2022-10-17T08:41:02.892Z,101425.25
2022-10-17T08:44:00.820Z,101428.41
2022-10-17T08:46:46.266Z,101431.84
2022-10-17T08:49:42.204Z,101421.38
2022-10-17T08:52:40.543Z,101424.53
2022-10-17T08:55:32.367Z,101432.19
2022-10-17T08:58:00.430Z,101429.97
2022-10-17T09:00:31.674Z,101426.22
2022-10-17T09:03:41.501Z,101429.91
2022-10-17T09:06:33.000Z,101430.47
2022-10-17T09:09:37.337Z,101429.81
2022-10-17T09:12:36.081Z,101428.06
2022-10-17T09:15:32.277Z,101429.19
2022-10-17T09:18:17.606Z,101434.53
2022-10-17T09:21:13.791Z,101434.34
2022-10-17T09:24:09.656Z,101434.38
2022-10-17T09:26:45.865Z,101437.44
2022-10-17T09:29:43.619Z,101437.09
2022-10-17T09:32:25.259Z,101437.44
2022-10-17T09:34:55.292Z,101424.81
2022-10-17T09:37:31.618Z,101435.91
2022-10-17T09:39:59.964Z,101445.69
2022-10-17T09:42:29.875Z,101442.81
2022-10-17T09:45:31.856Z,101439.59
2022-10-17T09:48:22.772Z,101439.44
2022-10-17T09:51:02.532Z,101444.13
2022-10-17T09:54:01.206Z,101440.59
2022-10-17T09:56:31.298Z,101441.91
2022-10-17T09:59:05.076Z,101440.19
2022-10-17T10:01:35.415Z,101438.44
2022-10-17T10:04:18.453Z,101446.84
2022-10-17T10:07:10.312Z,101447.59
2022-10-17T10:09:40.412Z,101441.16
2022-10-17T10:12:18.483Z,101442.94
2022-10-17T10:14:47.345Z,101446.72
2022-10-17T10:17:47.539Z,101440.25
2022-10-17T10:20:36.070Z,101432.66
2022-10-17T10:23:15.233Z,101440.06
2022-10-17T10:26:06.290Z,101441.59
2022-10-17T10:28:40.041Z,101439.06
2022-10-17T10:31:12.157Z,101431.44
2022-10-17T10:33:56.854Z,101431.66
2022-10-17T10:36:25.422Z,101439.06
2022-10-17T10:39:01.241Z,101426.59
2022-10-17T10:41:48.079Z,101424.56
2022-10-17T10:44:20.704Z,101436.50
2022-10-17T10:46:50.395Z,101423.81
2022-10-17T10:49:32.730Z,101421.25
2022-10-17T10:52:10.986Z,101426.53
2022-10-17T10:54:50.486Z,101421.34
2022-10-17T10:57:27.114Z,101421.78
2022-10-17T11:00:21.643Z,101410.66
2022-10-17T11:03:35.651Z,101423.72
2022-10-17T11:06:20.894Z,101414.41
2022-10-17T11:09:28.832Z,101410.31
2022-10-17T11:12:20.840Z,101405.69
2022-10-17T11:15:19.023Z,101403.22
2022-10-17T11:18:05.585Z,101408.97
2022-10-17T11:21:00.916Z,101410.59
2022-10-17T11:23:51.133Z,101404.41
2022-10-17T11:27:10.509Z,101404.06
2022-10-17T11:29:42.812Z,101402.66
2022-10-17T11:32:19.627Z,101399.56
2022-10-17T11:34:49.935Z,101396.53
2022-10-17T11:37:23.079Z,101396.44
2022-10-17T11:40:31.323Z,101396.66
2022-10-17T11:43:02.311Z,101386.25
2022-10-17T11:45:35.173Z,101392.06
2022-10-17T11:48:17.895Z,101396.44
2022-10-17T11:53:47.814Z,101380.06
2022-10-17T11:56:20.175Z,101389.13
2022-10-17T11:58:58.649Z,101388.25
2022-10-17T12:01:42.161Z,101389.03
2022-10-17T12:04:30.792Z,101382.00
2022-10-17T12:07:25.690Z,101378.66
2022-10-17T12:10:21.654Z,101377.34
2022-10-17T12:12:49.536Z,101384.09
2022-10-17T12:15:23.501Z,101380.41
2022-10-17T12:18:03.161Z,101375.34
2022-10-17T12:20:35.564Z,101380.34
2022-10-17T12:23:13.308Z,101376.88
2022-10-17T12:25:57.130Z,101367.91
2022-10-17T12:28:38.365Z,101364.84
2022-10-17T12:31:13.110Z,101362.19
2022-10-17T12:33:39.698Z,101363.84
2022-10-17T12:36:31.116Z,101369.53
2022-10-17T12:39:03.586Z,101361.47
2022-10-17T12:41:38.811Z,101363.38
2022-10-17T12:44:14.739Z,101362.91
2022-10-17T12:46:45.869Z,101361.13
2022-10-17T12:49:24.584Z,101353.13
2022-10-17T12:52:20.772Z,101347.00
2022-10-17T12:55:13.178Z,101345.28
2022-10-17T12:57:48.584Z,101349.13
2022-10-17T13:00:28.105Z,101340.94
2022-10-17T13:03:02.010Z,101342.47
2022-10-17T13:05:32.790Z,101341.31
2022-10-17T13:08:02.185Z,101341.00
2022-10-17T13:10:32.345Z,101342.34
2022-10-17T13:13:13.025Z,101341.31
2022-10-17T13:15:39.696Z,101347.34
2022-10-17T13:18:06.750Z,101341.94
2022-10-17T13:20:33.584Z,101342.78
2022-10-17T13:23:00.844Z,101337.66
2022-10-17T13:25:28.708Z,101334.91
2022-10-17T13:28:13.708Z,101326.13
2022-10-17T13:30:49.278Z,101336.22
2022-10-17T13:33:28.632Z,101338.13
2022-10-17T13:36:00.549Z,101332.41
2022-10-17T13:38:32.548Z,101335.66
2022-10-17T13:41:11.057Z,101333.13
2022-10-17T13:43:43.963Z,101336.88
2022-10-17T13:46:36.956Z,101329.72
2022-10-17T13:49:18.348Z,101330.22
2022-10-17T13:51:48.037Z,101326.03
2022-10-17T13:54:37.694Z,101327.75
2022-10-17T13:57:25.752Z,101331.88
2022-10-17T13:59:55.975Z,101344.25
2022-10-17T14:02:28.620Z,101330.88
2022-10-17T14:05:19.282Z,101326.38
2022-10-17T14:08:11.799Z,101333.75
2022-10-17T14:10:41.422Z,101331.53
2022-10-17T14:13:19.166Z,101331.41
2022-10-17T14:15:46.581Z,101335.31
2022-10-17T14:18:22.269Z,101336.25
2022-10-17T14:21:34.057Z,101338.94
2022-10-17T14:23:43.610Z,101339.50
2022-10-17T14:26:15.052Z,101332.03
2022-10-17T14:28:42.728Z,101338.56
2022-10-17T14:31:25.574Z,101336.03
2022-10-17T14:33:54.183Z,101324.22
2022-10-17T14:36:31.107Z,101320.47
2022-10-17T14:39:01.770Z,101324.44
2022-10-17T14:41:47.848Z,101326.72
2022-10-17T14:44:43.119Z,101324.06
2022-10-17T14:47:42.169Z,101331.00
2022-10-17T14:50:11.556Z,101320.09
2022-10-17T14:52:39.083Z,101326.63
2022-10-17T14:55:24.660Z,101316.53
2022-10-17T14:57:51.713Z,101320.63
2022-10-17T15:00:21.120Z,101318.06
2022-10-17T15:02:49.175Z,101320.06
2022-10-17T15:05:16.490Z,101319.78
2022-10-17T15:07:43.630Z,101319.41
2022-10-17T15:10:28.404Z,101319.09
2022-10-17T15:12:59.115Z,101320.63
2022-10-17T15:15:30.402Z,101322.13
2022-10-17T15:17:57.324Z,101317.56
2022-10-17T15:20:27.174Z,101316.28
2022-10-17T15:22:58.882Z,101316.44
2022-10-17T15:25:26.727Z,101322.88
2022-10-17T15:27:53.968Z,101324.81
2022-10-17T15:30:29.907Z,101321.13
2022-10-17T15:32:56.540Z,101320.75
2022-10-17T15:35:23.412Z,101319.78
2022-10-17T15:37:50.086Z,101318.34
2022-10-17T15:40:18.112Z,101315.78
2022-10-17T15:42:44.754Z,101335.91
2022-10-17T15:45:12.873Z,101331.59
2022-10-17T15:47:41.427Z,101322.63
2022-10-17T15:50:11.720Z,101326.00
2022-10-17T15:52:38.377Z,101327.44
2022-10-17T15:55:05.484Z,101328.69
2022-10-17T15:57:38.198Z,101331.06
2022-10-17T16:00:16.662Z,101339.09
2022-10-17T16:02:43.930Z,101338.75
2022-10-17T16:05:16.735Z,101346.34
2022-10-17T16:07:46.323Z,101343.75
2022-10-17T16:10:14.234Z,101345.88
2022-10-17T16:12:43.890Z,101347.97
2022-10-17T16:15:16.925Z,101350.75
2022-10-17T16:17:44.268Z,101345.31
2022-10-17T16:20:12.555Z,101345.81
2022-10-17T16:22:42.153Z,101349.56
2022-10-17T16:25:21.512Z,101346.34
2022-10-17T16:27:50.512Z,101354.84
2022-10-17T16:30:17.646Z,101345.28
2022-10-17T16:32:44.331Z,101353.44
2022-10-17T16:35:17.584Z,101348.84
2022-10-17T16:37:44.468Z,101351.69
2022-10-17T16:40:11.858Z,101346.88
2022-10-17T16:42:38.458Z,101355.72
2022-10-17T16:45:05.657Z,101356.69
2022-10-17T16:47:32.349Z,101362.25
2022-10-17T16:49:58.947Z,101354.94
2022-10-17T16:52:25.626Z,101366.47
2022-10-17T16:54:52.225Z,101364.53
2022-10-17T16:57:19.263Z,101360.59
2022-10-17T16:59:45.844Z,101370.56
2022-10-17T17:02:13.670Z,101371.34
2022-10-17T17:04:41.822Z,101373.41
2022-10-17T17:07:08.472Z,101377.03
2022-10-17T17:09:35.130Z,101371.56
2022-10-17T17:12:01.664Z,101375.91
2022-10-17T17:14:28.306Z,101375.38
2022-10-17T17:16:54.990Z,101375.16
2022-10-17T17:19:21.720Z,101378.19
2022-10-17T17:21:50.967Z,101378.25
2022-10-17T17:24:21.510Z,101382.78
2022-10-17T17:26:53.147Z,101388.84
2022-10-17T17:29:20.584Z,101380.63
2022-10-17T17:31:47.417Z,101385.81
2022-10-17T17:34:17.954Z,101384.59
2022-10-17T17:36:45.433Z,101377.75
2022-10-17T17:39:15.001Z,101374.50
2022-10-17T17:41:43.401Z,101382.78
2022-10-17T17:44:15.583Z,101377.09
2022-10-17T17:46:43.748Z,101381.28
2022-10-17T17:49:11.588Z,101380.19
2022-10-17T17:51:38.556Z,101386.66
2022-10-17T17:54:05.393Z,101390.34
2022-10-17T17:56:32.419Z,101392.38
2022-10-17T17:59:01.743Z,101385.50
2022-10-17T18:01:36.695Z,101393.25
2022-10-17T18:04:05.177Z,101391.84
2022-10-17T18:06:32.029Z,101391.44
2022-10-17T18:08:59.520Z,101396.44
2022-10-17T18:11:27.405Z,101396.75
2022-10-17T18:13:59.571Z,101395.34
2022-10-17T18:16:27.651Z,101392.22
2022-10-17T18:18:54.358Z,101392.50
2022-10-17T18:21:21.172Z,101401.69
2022-10-17T18:23:48.887Z,101396.53
2022-10-17T18:26:16.143Z,101405.97
2022-10-17T18:28:43.975Z,101402.00
2022-10-17T18:31:15.549Z,101397.88
2022-10-17T18:33:44.619Z,101399.75
2022-10-17T18:36:13.642Z,101405.47
2022-10-17T18:38:40.301Z,101406.06
2022-10-17T18:41:09.923Z,101410.03
2022-10-17T18:43:38.243Z,101408.63
2022-10-17T18:46:10.954Z,101405.22
2022-10-17T18:48:42.113Z,101413.78
2022-10-17T18:51:08.932Z,101413.22
2022-10-17T18:53:39.943Z,101402.53
2022-10-17T18:56:06.987Z,101408.38
2022-10-17T18:58:33.662Z,101407.66
2022-10-17T19:01:05.011Z,101405.22
2022-10-17T19:03:32.364Z,101416.50
2022-10-17T19:06:08.521Z,101409.84
2022-10-17T19:08:36.782Z,101414.09
2022-10-17T19:11:11.289Z,101424.50
2022-10-17T19:13:38.081Z,101418.66
2022-10-17T19:16:09.717Z,101412.94
2022-10-17T19:18:37.491Z,101418.91
2022-10-17T19:21:06.909Z,101413.22
2022-10-17T19:23:35.949Z,101425.59
2022-10-17T19:26:12.884Z,101422.91
2022-10-17T19:28:42.170Z,101423.31
2022-10-17T19:31:08.919Z,101414.06
2022-10-17T19:33:35.945Z,101414.63
2022-10-17T19:36:06.597Z,101416.31
2022-10-17T19:38:34.083Z,101416.59
2022-10-17T19:41:00.893Z,101416.88
2022-10-17T19:43:27.488Z,101408.31
2022-10-17T19:45:56.005Z,101409.56
2022-10-17T19:48:23.091Z,101404.72
2022-10-17T19:50:50.227Z,101404.28
2022-10-17T19:53:17.798Z,101399.28
2022-10-17T19:55:44.740Z,101396.00
2022-10-17T19:58:12.129Z,101399.97
2022-10-17T20:00:38.734Z,101398.56
2022-10-17T20:03:05.301Z,101398.84
2022-10-17T20:05:31.889Z,101404.50
2022-10-17T20:07:58.516Z,101396.66
2022-10-17T20:10:25.612Z,101398.63
2022-10-17T20:12:52.195Z,101404.44
2022-10-17T20:15:18.853Z,101398.47
2022-10-17T20:17:45.484Z,101396.03
2022-10-17T20:20:12.228Z,101398.97
2022-10-17T20:22:38.896Z,101402.66
2022-10-17T20:25:05.928Z,101401.25
2022-10-17T20:27:32.757Z,101394.09
2022-10-17T20:30:01.882Z,101392.66
2022-10-17T20:32:30.996Z,101397.34
2022-10-17T20:34:58.270Z,101399.59
2022-10-17T20:37:25.399Z,101392.63
2022-10-17T20:40:10.689Z,101390.31
2022-10-17T20:42:38.793Z,101393.41
2022-10-17T20:45:06.291Z,101389.41
2022-10-17T20:47:45.027Z,101391.66
2022-10-17T20:50:13.873Z,101399.03
2022-10-17T20:52:40.461Z,101392.56
2022-10-17T20:55:07.365Z,101391.00
2022-10-17T20:57:33.917Z,101380.47
2022-10-17T21:00:00.523Z,101387.81
2022-10-17T21:02:27.119Z,101382.56
2022-10-17T21:04:53.863Z,101394.50
2022-10-17T21:07:22.230Z,101384.09
2022-10-17T21:09:48.922Z,101389.75
2022-10-17T21:12:25.765Z,101386.47
2022-10-17T21:15:02.190Z,101394.47
2022-10-17T21:17:28.805Z,101400.78
2022-10-17T21:19:55.873Z,101394.31
2022-10-17T21:22:22.509Z,101396.19
2022-10-17T21:24:49.124Z,101398.69
2022-10-17T21:27:18.125Z,101386.41
2022-10-17T21:29:46.094Z,101391.22
2022-10-17T21:32:25.171Z,101387.19
2022-10-17T21:34:59.365Z,101392.78
2022-10-17T21:37:26.000Z,101383.50
2022-10-17T21:39:52.566Z,101392.09
2022-10-17T21:42:22.721Z,101383.75
2022-10-17T21:44:52.473Z,101387.72
2022-10-17T21:47:23.252Z,101380.59
2022-10-17T21:49:52.611Z,101386.22
2022-10-17T21:52:20.607Z,101381.69
2022-10-17T21:54:47.345Z,101378.50
2022-10-17T21:59:48.135Z,101374.50
2022-10-17T22:02:16.416Z,101376.19
2022-10-17T22:04:46.750Z,101374.25
2022-10-17T22:07:13.933Z,101364.41
2022-10-17T22:09:41.719Z,101369.06
2022-10-17T22:12:09.865Z,101364.63
2022-10-17T22:14:38.824Z,101349.63
2022-10-17T22:17:08.944Z,101365.97
2022-10-17T22:19:36.680Z,101359.19
2022-10-17T22:22:04.607Z,101357.22
2022-10-17T22:24:32.421Z,101364.78
2022-10-17T22:27:00.641Z,101368.09
2022-10-17T22:29:28.720Z,101356.16
2022-10-17T22:31:57.307Z,101366.00
2022-10-17T22:34:23.836Z,101366.13
2022-10-17T22:36:51.514Z,101360.13
2022-10-17T22:39:19.688Z,101360.38
2022-10-17T22:41:47.405Z,101369.47
2022-10-17T22:44:14.008Z,101357.50
2022-10-17T22:46:42.049Z,101363.41
2022-10-17T22:49:10.078Z,101360.19
2022-10-17T22:51:36.661Z,101358.72
2022-10-17T22:54:04.373Z,101357.25
2022-10-17T22:56:32.556Z,101352.13
2022-10-17T22:59:00.446Z,101359.22
2022-10-17T23:01:28.126Z,101355.91
2022-10-17T23:03:56.130Z,101356.91
2022-10-17T23:06:24.446Z,101352.63
2022-10-17T23:08:52.339Z,101348.44
2022-10-17T23:11:19.172Z,101340.59
2022-10-17T23:13:47.291Z,101347.97
2022-10-17T23:16:15.373Z,101344.56
2022-10-17T23:18:44.207Z,101342.84
2022-10-17T23:21:12.629Z,101340.38
2022-10-17T23:23:39.324Z,101342.38
2022-10-17T23:26:12.880Z,101338.19
2022-10-17T23:28:41.973Z,101338.19
2022-10-17T23:31:19.841Z,101340.16
2022-10-17T23:33:50.039Z,101341.25
2022-10-17T23:36:19.598Z,101339.69
2022-10-17T23:38:48.632Z,101347.78
2022-10-17T23:41:17.696Z,101340.66
2022-10-17T23:43:44.713Z,101335.53
2022-10-17T23:46:12.940Z,101333.56
2022-10-17T23:48:41.225Z,101333.81
2022-10-17T23:51:10.624Z,101334.94
2022-10-17T23:53:39.057Z,101339.69
2022-10-17T23:56:07.923Z,101336.28
2022-10-17T23:58:36.337Z,101331.13
